createdAt,value
2023-01-15T00:00:37.627Z,98528.03
2023-01-15T00:03:05.954Z,98540.03
2023-01-15T00:05:36.928Z,98525.59
2023-01-15T00:08:05.796Z,98517.13
2023-01-15T00:10:34.044Z,98514.13
2023-01-15T00:13:03.810Z,98510.50
2023-01-15T00:15:32.303Z,98504.50
2023-01-15T00:18:07.827Z,98490.88
2023-01-15T00:20:36.052Z,98495.88
2023-01-15T00:23:27.234Z,98482.41
2023-01-15T00:26:21.069Z,98480.94
2023-01-15T00:28:51.140Z,98502.06
2023-01-15T00:31:19.355Z,98504.25
2023-01-15T00:33:49.721Z,98501.28
2023-01-15T00:36:19.087Z,98502.31
2023-01-15T00:38:47.389Z,98501.00
2023-01-15T00:41:17.565Z,98512.84
2023-01-15T00:43:46.521Z,98505.50
2023-01-15T00:46:17.210Z,98512.84
2023-01-15T00:48:49.007Z,98496.41
2023-01-15T00:51:17.131Z,98485.56
2023-01-15T00:53:49.669Z,98483.56
2023-01-15T00:56:19.603Z,98489.56
2023-01-15T00:58:48.375Z,98483.75
2023-01-15T01:01:17.965Z,98474.63
2023-01-15T01:03:49.153Z,98472.59
2023-01-15T01:06:17.435Z,98470.59
2023-01-15T01:08:46.230Z,98459.78
2023-01-15T01:11:15.769Z,98455.63
2023-01-15T01:13:44.503Z,98472.28
2023-01-15T01:16:30.506Z,98470.97
2023-01-15T01:18:59.543Z,98461.66
2023-01-15T01:21:28.089Z,98471.97
2023-01-15T01:23:56.477Z,98473.31
2023-01-15T01:26:24.577Z,98466.66
2023-01-15T01:28:53.696Z,98457.97
2023-01-15T01:31:23.053Z,98464.16
2023-01-15T01:33:52.942Z,98462.63
2023-01-15T01:36:21.310Z,98460.13
2023-01-15T01:38:50.887Z,98453.44
2023-01-15T01:41:19.357Z,98437.97
2023-01-15T01:43:56.705Z,98436.28
2023-01-15T01:46:25.628Z,98434.31
2023-01-15T01:48:56.989Z,98432.47
2023-01-15T01:51:27.366Z,98428.28
2023-01-15T01:53:56.014Z,98434.31
2023-01-15T01:56:24.320Z,98418.47
2023-01-15T01:58:55.084Z,98429.16
2023-01-15T02:01:24.205Z,98432.09
2023-01-15T02:03:54.505Z,98431.97
2023-01-15T02:06:25.890Z,98430.94
2023-01-15T02:08:54.027Z,98433.63
2023-01-15T02:11:23.620Z,98424.31
2023-01-15T02:13:56.007Z,98424.81
2023-01-15T02:16:26.285Z,98425.63
2023-01-15T02:18:58.921Z,98425.81
2023-01-15T02:21:41.340Z,98430.00
2023-01-15T02:24:18.195Z,98436.97
2023-01-15T02:27:03.343Z,98433.97
2023-01-15T02:29:36.944Z,98445.31
2023-01-15T02:32:09.597Z,98440.63
2023-01-15T02:34:39.767Z,98450.66
2023-01-15T02:37:12.248Z,98447.31
2023-01-15T02:39:43.583Z,98436.47
2023-01-15T02:42:14.108Z,98439.31
2023-01-15T02:44:49.202Z,98446.63
2023-01-15T02:47:18.329Z,98439.31
2023-01-15T02:49:48.322Z,98433.66
2023-01-15T02:52:22.439Z,98434.97
2023-01-15T02:54:54.697Z,98432.47
2023-01-15T02:57:26.730Z,98431.47
2023-01-15T02:59:59.323Z,98426.16
2023-01-15T03:02:30.156Z,98418.66
2023-01-15T03:05:01.682Z,98422.66
2023-01-15T03:07:34.074Z,98406.66
2023-01-15T03:10:02.605Z,98415.66
2023-01-15T03:12:59.768Z,98407.16
2023-01-15T03:15:50.582Z,98409.31
2023-01-15T03:18:20.711Z,98420.31
2023-01-15T03:20:52.095Z,98418.63
2023-01-15T03:23:22.426Z,98423.78
2023-01-15T03:25:51.151Z,98422.63
2023-01-15T03:28:24.961Z,98420.97
2023-01-15T03:30:54.237Z,98420.97
2023-01-15T03:33:22.285Z,98424.97
2023-01-15T03:35:53.497Z,98436.78
2023-01-15T03:38:36.507Z,98421.94
2023-01-15T03:41:11.990Z,98429.78
2023-01-15T03:43:48.377Z,98427.28
2023-01-15T03:46:32.343Z,98443.28
2023-01-15T03:49:03.158Z,98440.44
2023-01-15T03:51:36.667Z,98444.94
2023-01-15T03:54:08.617Z,98435.09
2023-01-15T03:56:43.100Z,98425.31
2023-01-15T03:59:16.228Z,98427.81
2023-01-15T04:01:55.264Z,98437.59
2023-01-15T04:04:25.135Z,98423.81
2023-01-15T04:06:54.681Z,98428.63
2023-01-15T04:09:23.264Z,98421.81
2023-01-15T04:11:55.046Z,98419.31
2023-01-15T04:14:24.955Z,98418.00
2023-01-15T04:16:56.055Z,98412.66
2023-01-15T04:19:25.924Z,98415.97
2023-01-15T04:22:06.355Z,98420.31
2023-01-15T04:24:34.989Z,98423.63
2023-01-15T04:27:03.280Z,98426.16
2023-01-15T04:29:32.920Z,98421.97
2023-01-15T04:32:01.319Z,98426.28
2023-01-15T04:34:29.800Z,98426.97
2023-01-15T04:36:58.685Z,98425.31
2023-01-15T04:39:26.821Z,98431.63
2023-01-15T04:42:12.448Z,98432.66
2023-01-15T04:44:42.550Z,98434.63
2023-01-15T04:47:10.739Z,98441.28
2023-01-15T04:49:38.889Z,98431.81
2023-01-15T04:52:07.011Z,98432.28
2023-01-15T04:54:35.306Z,98426.28
2023-01-15T04:57:03.620Z,98433.47
2023-01-15T04:59:31.876Z,98441.09
2023-01-15T05:02:05.773Z,98434.63
2023-01-15T05:04:35.108Z,98432.28
2023-01-15T05:07:03.487Z,98434.28
2023-01-15T05:09:31.772Z,98428.94
2023-01-15T05:12:00.396Z,98434.09
2023-01-15T05:14:28.484Z,98420.94
2023-01-15T05:16:56.575Z,98418.13
2023-01-15T05:19:26.518Z,98426.09
2023-01-15T05:21:54.960Z,98417.97
2023-01-15T05:24:23.341Z,98426.59
2023-01-15T05:26:51.403Z,98434.41
2023-01-15T05:29:19.707Z,98441.22
2023-01-15T05:31:48.054Z,98444.22
2023-01-15T05:34:16.456Z,98446.22
2023-01-15T05:36:46.442Z,98442.88
2023-01-15T05:39:14.973Z,98445.38
2023-01-15T05:41:52.919Z,98438.00
2023-01-15T05:44:23.090Z,98425.19
2023-01-15T05:46:52.362Z,98419.34
2023-01-15T05:49:21.651Z,98422.16
2023-01-15T05:51:51.433Z,98426.97
2023-01-15T05:54:20.525Z,98428.13
2023-01-15T05:56:49.356Z,98427.31
2023-01-15T05:59:18.248Z,98431.78
2023-01-15T06:01:46.552Z,98436.81
2023-01-15T06:04:15.495Z,98433.47
2023-01-15T06:06:43.606Z,98443.59
2023-01-15T06:09:13.141Z,98445.56
2023-01-15T06:11:47.589Z,98447.41
2023-01-15T06:14:16.563Z,98448.41
2023-01-15T06:16:45.024Z,98448.41
2023-01-15T06:19:13.896Z,98443.06
2023-01-15T06:21:42.567Z,98451.22
2023-01-15T06:24:10.921Z,98462.69
2023-01-15T06:26:41.142Z,98473.34
2023-01-15T06:29:09.526Z,98485.81
2023-01-15T06:31:37.665Z,98494.47
2023-01-15T06:34:05.830Z,98490.66
2023-01-15T06:36:34.509Z,98494.69
2023-01-15T06:39:05.093Z,98493.00
2023-01-15T06:41:50.957Z,98499.19
2023-01-15T06:44:38.141Z,98498.00
2023-01-15T06:47:24.260Z,98496.00
2023-01-15T06:49:53.689Z,98495.00
2023-01-15T06:52:21.959Z,98503.81
2023-01-15T06:54:50.128Z,98503.81
2023-01-15T06:57:19.093Z,98511.63
2023-01-15T06:59:48.884Z,98511.63
2023-01-15T07:02:18.204Z,98506.31
2023-01-15T07:04:46.941Z,98507.34
2023-01-15T07:07:15.176Z,98515.31
2023-01-15T07:09:43.570Z,98524.28
2023-01-15T07:12:12.269Z,98532.13
2023-01-15T07:14:40.726Z,98533.09
2023-01-15T07:17:10.599Z,98539.13
2023-01-15T07:19:38.937Z,98545.44
2023-01-15T07:22:08.320Z,98534.94
2023-01-15T07:24:36.820Z,98546.41
2023-01-15T07:27:05.018Z,98545.59
2023-01-15T07:29:35.247Z,98532.78
2023-01-15T07:32:03.661Z,98538.59
2023-01-15T07:34:33.601Z,98534.41
2023-01-15T07:37:01.785Z,98535.75
2023-01-15T07:39:31.832Z,98542.53
2023-01-15T07:42:17.493Z,98545.47
2023-01-15T07:45:04.017Z,98538.94
2023-01-15T07:47:49.649Z,98542.47
2023-01-15T07:50:20.491Z,98539.09
2023-01-15T07:52:48.639Z,98543.81
2023-01-15T07:55:17.377Z,98550.78
2023-01-15T07:57:45.957Z,98553.00
2023-01-15T08:00:15.812Z,98549.88
2023-01-15T08:02:46.171Z,98550.09
2023-01-15T08:05:14.609Z,98547.78
2023-01-15T08:07:45.503Z,98558.09
2023-01-15T08:10:14.241Z,98549.94
2023-01-15T08:12:59.680Z,98556.78
2023-01-15T08:15:28.251Z,98557.16
2023-01-15T08:17:56.809Z,98553.03
2023-01-15T08:20:26.129Z,98550.03
2023-01-15T08:22:55.851Z,98548.75
2023-01-15T08:25:24.819Z,98562.56
2023-01-15T08:27:53.038Z,98563.09
2023-01-15T08:30:22.872Z,98566.41
2023-01-15T08:32:51.381Z,98569.06
2023-01-15T08:35:19.797Z,98564.44
2023-01-15T08:37:47.953Z,98572.78
2023-01-15T08:40:17.791Z,98569.13
2023-01-15T08:42:46.441Z,98570.47
2023-01-15T08:45:14.904Z,98582.31
2023-01-15T08:47:43.093Z,98590.00
2023-01-15T08:50:11.956Z,98590.53
2023-01-15T08:52:40.292Z,98598.84
2023-01-15T08:55:09.350Z,98594.03
2023-01-15T08:57:39.110Z,98600.72
2023-01-15T09:00:07.895Z,98600.91
2023-01-15T09:02:36.221Z,98609.25
2023-01-15T09:05:04.416Z,98620.59
2023-01-15T09:07:32.620Z,98624.59
2023-01-15T09:10:00.726Z,98623.97
2023-01-15T09:12:29.560Z,98627.31
2023-01-15T09:15:02.839Z,98627.66
2023-01-15T09:17:33.181Z,98631.69
2023-01-15T09:20:03.248Z,98628.50
2023-01-15T09:22:31.528Z,98636.84
2023-01-15T09:24:59.808Z,98632.19
2023-01-15T09:27:34.215Z,98642.38
2023-01-15T09:30:04.425Z,98638.38
2023-01-15T09:32:33.230Z,98643.06
2023-01-15T09:35:01.557Z,98639.06
2023-01-15T09:37:29.798Z,98649.91
2023-01-15T09:39:57.959Z,98648.94
2023-01-15T09:42:36.838Z,98653.91
2023-01-15T09:45:15.220Z,98650.44
2023-01-15T09:47:48.404Z,98640.78
2023-01-15T09:50:20.819Z,98648.63
2023-01-15T09:52:59.086Z,98653.97
2023-01-15T09:55:28.908Z,98652.94
2023-01-15T09:57:58.497Z,98656.44
2023-01-15T10:00:29.132Z,98666.44
2023-01-15T10:03:00.828Z,98667.47
2023-01-15T10:05:30.865Z,98665.63
2023-01-15T10:08:00.437Z,98679.97
2023-01-15T10:10:34.036Z,98673.75
2023-01-15T10:13:07.810Z,98682.59
2023-01-15T10:15:41.487Z,98680.56
2023-01-15T10:18:13.864Z,98686.75
2023-01-15T10:20:49.942Z,98690.56
2023-01-15T10:23:27.192Z,98693.19
2023-01-15T10:25:59.019Z,98692.34
2023-01-15T10:28:30.138Z,98698.66
2023-01-15T10:31:05.465Z,98697.59
2023-01-15T10:33:51.749Z,98702.41
2023-01-15T10:36:23.108Z,98704.88
2023-01-15T10:39:02.153Z,98708.34
2023-01-15T10:41:39.420Z,98710.84
2023-01-15T10:44:14.465Z,98710.50
2023-01-15T10:46:47.088Z,98722.84
2023-01-15T10:49:17.115Z,98714.59
2023-01-15T10:51:46.609Z,98717.09
2023-01-15T10:54:18.706Z,98715.06
2023-01-15T10:56:49.922Z,98723.16
2023-01-15T10:59:22.369Z,98717.44
2023-01-15T11:01:54.286Z,98719.09
2023-01-15T11:04:22.943Z,98724.13
2023-01-15T11:06:51.089Z,98721.50
2023-01-15T11:09:21.071Z,98724.34
2023-01-15T11:12:07.115Z,98719.00
2023-01-15T11:14:54.008Z,98715.13
2023-01-15T11:17:47.500Z,98720.78
2023-01-15T11:20:22.571Z,98707.91
2023-01-15T11:22:51.167Z,98701.16
2023-01-15T11:25:27.085Z,98702.97
2023-01-15T11:27:55.327Z,98704.59
2023-01-15T11:30:27.952Z,98699.47
2023-01-15T11:32:58.505Z,98699.63
2023-01-15T11:35:27.337Z,98700.91
2023-01-15T11:38:08.805Z,98694.59
2023-01-15T11:40:37.133Z,98694.53
2023-01-15T11:43:31.245Z,98684.34
2023-01-15T11:46:16.680Z,98682.09
2023-01-15T11:49:05.013Z,98684.94
2023-01-15T11:51:39.380Z,98682.91
2023-01-15T11:54:09.933Z,98690.53
2023-01-15T11:56:58.248Z,98691.34
2023-01-15T11:59:26.771Z,98693.84
2023-01-15T12:01:59.418Z,98681.38
2023-01-15T12:04:45.448Z,98684.34
2023-01-15T12:07:18.460Z,98669.59
2023-01-15T12:10:01.224Z,98663.13
2023-01-15T12:12:35.416Z,98663.44
2023-01-15T12:15:09.912Z,98665.91
2023-01-15T12:17:56.580Z,98669.59
2023-01-15T12:20:31.953Z,98664.28
2023-01-15T12:23:18.915Z,98665.47
2023-01-15T12:25:59.654Z,98650.31
2023-01-15T12:28:35.698Z,98643.28
2023-01-15T12:31:15.996Z,98647.28
2023-01-15T12:33:53.548Z,98646.38
2023-01-15T12:36:32.083Z,98648.88
2023-01-15T12:39:09.884Z,98640.06
2023-01-15T12:42:02.131Z,98646.91
2023-01-15T12:44:55.405Z,98638.22
2023-01-15T12:47:27.908Z,98654.44
2023-01-15T12:50:01.563Z,98641.75
2023-01-15T12:52:37.230Z,98638.50
2023-01-15T12:55:20.719Z,98633.56
2023-01-15T12:57:54.751Z,98623.25
2023-01-15T13:00:32.032Z,98613.25
2023-01-15T13:03:13.687Z,98600.19
2023-01-15T13:05:50.256Z,98594.44
2023-01-15T13:08:21.967Z,98577.06
2023-01-15T13:10:57.269Z,98572.53
2023-01-15T13:13:36.564Z,98560.63
2023-01-15T13:16:15.456Z,98553.94
2023-01-15T13:18:51.067Z,98539.72
2023-01-15T13:21:27.211Z,98540.38
2023-01-15T13:24:12.655Z,98537.53
2023-01-15T13:26:54.100Z,98536.88
2023-01-15T13:29:32.649Z,98537.53
2023-01-15T13:32:03.594Z,98535.59
2023-01-15T13:34:42.602Z,98530.59
2023-01-15T13:37:17.744Z,98535.44
2023-01-15T13:39:52.515Z,98530.56
2023-01-15T13:42:38.030Z,98520.19
2023-01-15T13:45:29.602Z,98526.97
2023-01-15T13:48:09.072Z,98521.31
2023-01-15T13:50:46.904Z,98515.81
2023-01-15T13:53:22.189Z,98524.38
2023-01-15T13:55:56.065Z,98511.56
2023-01-15T13:58:29.934Z,98504.88
2023-01-15T14:01:09.387Z,98498.63
2023-01-15T14:03:42.313Z,98489.84
2023-01-15T14:06:15.769Z,98494.63
2023-01-15T14:08:46.342Z,98488.63
2023-01-15T14:11:39.946Z,98487.72
2023-01-15T14:14:28.947Z,98484.38
2023-01-15T14:17:01.341Z,98486.44
2023-01-15T14:19:41.318Z,98483.56
2023-01-15T14:22:39.344Z,98482.25
2023-01-15T14:25:22.835Z,98484.84
2023-01-15T14:28:04.085Z,98481.88
2023-01-15T14:30:51.910Z,98468.97
2023-01-15T14:33:28.638Z,98468.88
2023-01-15T14:36:02.426Z,98463.84
2023-01-15T14:38:33.535Z,98454.66
2023-01-15T14:41:04.799Z,98448.75
2023-01-15T14:43:39.731Z,98444.19
2023-01-15T14:46:19.607Z,98446.88
2023-01-15T14:48:54.582Z,98439.88
2023-01-15T14:51:33.102Z,98430.53
2023-01-15T14:54:08.685Z,98428.75
2023-01-15T14:56:45.149Z,98414.84
2023-01-15T14:59:23.585Z,98407.78
2023-01-15T15:02:02.028Z,98396.53
2023-01-15T15:04:42.860Z,98383.34
2023-01-15T15:07:18.264Z,98383.06
2023-01-15T15:09:53.710Z,98377.44
2023-01-15T15:12:27.229Z,98377.13
2023-01-15T15:15:01.358Z,98362.47
2023-01-15T15:17:35.199Z,98364.50
2023-01-15T15:20:24.657Z,98351.00
2023-01-15T15:23:00.815Z,98359.16
2023-01-15T15:25:32.121Z,98349.28
2023-01-15T15:28:06.815Z,98350.00
2023-01-15T15:30:39.201Z,98348.53
2023-01-15T15:33:18.289Z,98339.50
2023-01-15T15:35:51.519Z,98343.44
2023-01-15T15:38:23.699Z,98346.97
2023-01-15T15:40:59.259Z,98343.72
2023-01-15T15:43:50.592Z,98344.47
2023-01-15T15:46:45.859Z,98332.38
2023-01-15T15:49:18.753Z,98327.66
2023-01-15T15:51:57.227Z,98335.69
2023-01-15T15:54:34.334Z,98339.41
2023-01-15T15:57:11.501Z,98320.72
2023-01-15T15:59:51.540Z,98319.16
2023-01-15T16:02:27.947Z,98307.00
2023-01-15T16:05:04.336Z,98308.63
2023-01-15T16:07:41.292Z,98304.03
2023-01-15T16:10:25.171Z,98300.72
2023-01-15T16:13:01.054Z,98306.44
2023-01-15T16:15:36.811Z,98291.50
2023-01-15T16:18:23.030Z,98290.69
2023-01-15T16:20:54.091Z,98284.03
2023-01-15T16:23:26.971Z,98279.03
2023-01-15T16:26:08.767Z,98274.50
2023-01-15T16:28:46.096Z,98268.91
2023-01-15T16:31:21.302Z,98270.66
2023-01-15T16:33:59.384Z,98264.56
2023-01-15T16:36:54.560Z,98258.81
2023-01-15T16:39:30.570Z,98257.88
2023-01-15T16:42:05.453Z,98249.28
2023-01-15T16:44:49.816Z,98240.72
2023-01-15T16:47:23.386Z,98232.41
2023-01-15T16:49:55.863Z,98228.59
2023-01-15T16:52:53.079Z,98234.13
2023-01-15T16:55:46.367Z,98234.31
2023-01-15T16:58:21.103Z,98226.28
2023-01-15T17:00:50.691Z,98230.44
2023-01-15T17:03:25.792Z,98226.13
2023-01-15T17:06:01.011Z,98228.16
2023-01-15T17:08:36.607Z,98225.47
2023-01-15T17:11:22.560Z,98223.91
2023-01-15T17:13:52.383Z,98218.41
2023-01-15T17:16:26.255Z,98226.22
2023-01-15T17:18:59.960Z,98223.75
2023-01-15T17:21:35.731Z,98216.09
2023-01-15T17:24:13.612Z,98218.28
2023-01-15T17:26:50.319Z,98219.75
2023-01-15T17:29:24.278Z,98206.59
2023-01-15T17:31:59.153Z,98209.25
2023-01-15T17:34:35.396Z,98201.25
2023-01-15T17:37:09.489Z,98207.41
2023-01-15T17:39:44.458Z,98199.38
2023-01-15T17:42:20.558Z,98196.44
2023-01-15T17:44:53.742Z,98199.38
2023-01-15T17:47:23.766Z,98194.22
2023-01-15T17:49:56.793Z,98187.03
2023-01-15T17:52:33.053Z,98189.13
2023-01-15T17:55:22.965Z,98171.63
2023-01-15T17:58:11.509Z,98168.88
2023-01-15T18:00:59.982Z,98163.59
2023-01-15T18:03:51.655Z,98159.34
2023-01-15T18:06:23.683Z,98164.75
2023-01-15T18:08:55.587Z,98157.16
2023-01-15T18:11:23.891Z,98155.38
2023-01-15T18:13:53.465Z,98147.81
2023-01-15T18:16:21.921Z,98139.72
2023-01-15T18:18:50.451Z,98139.00
2023-01-15T18:21:18.697Z,98126.41
2023-01-15T18:23:46.883Z,98127.47
2023-01-15T18:26:14.934Z,98110.66
2023-01-15T18:28:43.078Z,98113.03
2023-01-15T18:31:12.730Z,98100.09
2023-01-15T18:33:41.029Z,98107.13
2023-01-15T18:36:10.407Z,98095.50
2023-01-15T18:38:38.707Z,98091.16
2023-01-15T18:41:07.731Z,98094.00
2023-01-15T18:44:01.676Z,98092.34
2023-01-15T18:46:47.397Z,98099.53
2023-01-15T18:49:15.861Z,98094.53
2023-01-15T18:51:43.929Z,98086.19
2023-01-15T18:54:12.961Z,98086.03
2023-01-15T18:56:42.901Z,98088.50
2023-01-15T18:59:12.000Z,98081.50
2023-01-15T19:01:42.560Z,98084.34
2023-01-15T19:04:12.018Z,98087.72
2023-01-15T19:06:40.568Z,98083.72
2023-01-15T19:09:10.458Z,98081.94
2023-01-15T19:11:39.132Z,98075.66
2023-01-15T19:14:25.368Z,98070.16
2023-01-15T19:17:14.364Z,98068.38
2023-01-15T19:19:43.446Z,98076.38
2023-01-15T19:22:28.966Z,98072.41
2023-01-15T19:24:57.397Z,98072.94
2023-01-15T19:27:25.620Z,98071.78
2023-01-15T19:29:53.683Z,98067.13
2023-01-15T19:32:23.920Z,98067.81
2023-01-15T19:34:53.273Z,98067.47
2023-01-15T19:37:22.416Z,98057.81
2023-01-15T19:39:51.324Z,98057.19
2023-01-15T19:42:37.876Z,98049.19
2023-01-15T19:45:24.490Z,98049.69
2023-01-15T19:48:12.013Z,98043.03
2023-01-15T19:50:42.183Z,98047.19
2023-01-15T19:53:11.083Z,98049.72
2023-01-15T19:55:40.295Z,98038.25
2023-01-15T19:58:10.279Z,98047.19
2023-01-15T20:00:39.663Z,98040.22
2023-01-15T20:03:10.684Z,98044.53
2023-01-15T20:05:40.750Z,98047.00
2023-01-15T20:08:13.208Z,98049.16
2023-01-15T20:10:42.395Z,98041.69
2023-01-15T20:13:29.915Z,98044.97
2023-01-15T20:16:01.422Z,98039.34
2023-01-15T20:18:31.703Z,98040.50
2023-01-15T20:20:59.891Z,98034.19
2023-01-15T20:23:28.368Z,98042.16
2023-01-15T20:26:01.776Z,98039.16
2023-01-15T20:28:30.062Z,98039.81
2023-01-15T20:31:00.261Z,98031.50
2023-01-15T20:33:28.654Z,98025.69
2023-01-15T20:35:58.477Z,98023.50
2023-01-15T20:38:26.716Z,98022.84
2023-01-15T20:40:55.065Z,98023.50
2023-01-15T20:43:41.012Z,98023.13
2023-01-15T20:46:11.238Z,98024.28
2023-01-15T20:48:56.955Z,98011.50
2023-01-15T20:51:27.447Z,98014.97
2023-01-15T20:53:56.299Z,98011.44
2023-01-15T20:56:25.116Z,98014.75
2023-01-15T20:58:53.549Z,98022.34
2023-01-15T21:01:21.832Z,98018.66
2023-01-15T21:03:50.047Z,98015.84
2023-01-15T21:06:18.411Z,98020.94
2023-01-15T21:08:48.916Z,98019.59
2023-01-15T21:11:17.340Z,98018.22
2023-01-15T21:13:47.158Z,98013.25
2023-01-15T21:16:16.140Z,98008.91
2023-01-15T21:18:45.468Z,98001.28
2023-01-15T21:21:16.083Z,98006.75
2023-01-15T21:23:45.766Z,97999.28
2023-01-15T21:26:16.291Z,98004.34
2023-01-15T21:28:45.819Z,98007.00
2023-01-15T21:31:15.428Z,98004.50
2023-01-15T21:33:43.819Z,98004.13
2023-01-15T21:36:13.236Z,97998.16
2023-01-15T21:38:42.383Z,97997.44
2023-01-15T21:41:11.927Z,97999.78
2023-01-15T21:43:59.220Z,97996.97
2023-01-15T21:46:28.502Z,97998.66
2023-01-15T21:48:58.217Z,98004.78
2023-01-15T21:51:27.101Z,98004.09
2023-01-15T21:54:00.040Z,98000.75
2023-01-15T21:56:28.843Z,98001.06
2023-01-15T21:58:58.984Z,98000.41
2023-01-15T22:01:27.626Z,98000.69
2023-01-15T22:03:56.319Z,98009.91
2023-01-15T22:06:24.861Z,98011.53
2023-01-15T22:08:55.000Z,98004.59
2023-01-15T22:11:24.356Z,98004.59
2023-01-15T22:13:53.530Z,98009.75
2023-01-15T22:16:24.470Z,98010.56
2023-01-15T22:18:53.252Z,98011.53
2023-01-15T22:21:22.558Z,98013.22
2023-01-15T22:23:51.615Z,98010.88
2023-01-15T22:26:20.130Z,98015.94
2023-01-15T22:28:48.882Z,98014.75
2023-01-15T22:31:18.034Z,98014.09
2023-01-15T22:33:48.006Z,98009.75
2023-01-15T22:36:17.552Z,98002.66
2023-01-15T22:38:47.212Z,98004.47
2023-01-15T22:41:15.499Z,98010.38
2023-01-15T22:43:44.102Z,98016.88
2023-01-15T22:46:13.684Z,98008.34
2023-01-15T22:48:42.646Z,98016.28
2023-01-15T22:51:12.364Z,98009.63
2023-01-15T22:53:40.759Z,98009.91
2023-01-15T22:56:09.116Z,98011.59
2023-01-15T22:58:42.473Z,98009.91
2023-01-15T23:01:11.303Z,98009.09
2023-01-15T23:03:39.555Z,98007.41
2023-01-15T23:06:08.946Z,98005.06
2023-01-15T23:08:58.874Z,98009.84
2023-01-15T23:11:27.479Z,98013.78
2023-01-15T23:13:56.183Z,98014.41
2023-01-15T23:16:24.814Z,98013.69
2023-01-15T23:18:53.133Z,98015.69
2023-01-15T23:21:22.453Z,98007.88
2023-01-15T23:23:54.379Z,98006.72
2023-01-15T23:26:25.071Z,98002.59
2023-01-15T23:28:54.228Z,98008.00
2023-01-15T23:31:23.618Z,98010.28
2023-01-15T23:33:52.289Z,98013.59
2023-01-15T23:36:20.679Z,98007.34
2023-01-15T23:38:49.421Z,98003.03
2023-01-15T23:41:18.861Z,98002.34
2023-01-15T23:44:06.291Z,98009.59
2023-01-15T23:46:35.422Z,98002.97
2023-01-15T23:49:05.472Z,98008.00
2023-01-15T23:51:34.424Z,98003.03
2023-01-15T23:54:03.321Z,98015.41
2023-01-15T23:56:32.353Z,98009.44
2023-01-15T23:59:02.565Z,98009.59
